createdAt,value
2023-04-29T08:04:59.558Z,13.52
2023-04-29T08:08:03.999Z,13.94
2023-04-29T08:11:07.601Z,14.29
2023-04-29T08:14:14.709Z,14.65
2023-04-29T08:17:18.473Z,15.00
2023-04-29T08:20:24.002Z,15.46
2023-04-29T08:23:40.891Z,15.87
2023-04-29T08:26:44.663Z,16.29
2023-04-29T08:29:48.288Z,16.68
2023-04-29T08:32:52.342Z,17.04
2023-04-29T08:36:03.626Z,17.36
2023-04-29T08:39:07.729Z,17.61
2023-04-29T08:42:12.252Z,17.76
2023-04-29T08:45:35.734Z,17.87
2023-04-29T08:48:44.225Z,17.94
2023-04-29T08:51:51.776Z,18.05
2023-04-29T08:54:56.230Z,18.08
2023-04-29T08:58:00.217Z,18.12
2023-04-29T09:01:04.398Z,18.20
2023-04-29T09:04:13.923Z,18.27
2023-04-29T09:07:19.709Z,18.44
2023-04-29T09:10:24.119Z,18.48
2023-04-29T09:13:29.361Z,18.71
2023-04-29T09:16:33.895Z,18.77
2023-04-29T09:19:38.387Z,18.90
2023-04-29T09:22:50.652Z,18.75
2023-04-29T09:25:58.492Z,18.98
2023-04-29T09:29:09.341Z,19.06
2023-04-29T09:32:25.217Z,19.18
2023-04-29T09:35:30.264Z,19.31
2023-04-29T09:38:36.802Z,19.48
2023-04-29T09:41:42.542Z,19.46
2023-04-29T09:44:46.613Z,19.43
2023-04-29T09:48:03.612Z,19.18
2023-04-29T09:51:07.512Z,19.34
2023-04-29T09:54:22.333Z,19.34
2023-04-29T09:57:43.357Z,19.48
2023-04-29T10:00:48.840Z,19.44
2023-04-29T10:03:55.584Z,19.42
2023-04-29T10:07:01.954Z,19.39
2023-04-29T10:10:09.354Z,19.47
2023-04-29T10:13:14.285Z,19.52
2023-04-29T10:16:31.320Z,19.38
2023-04-29T10:19:40.717Z,19.57
2023-04-29T10:22:48.054Z,19.65
2023-04-29T10:25:55.115Z,19.76
2023-04-29T10:29:00.300Z,19.86
2023-04-29T10:32:05.500Z,19.96
2023-04-29T10:35:11.799Z,20.15
2023-04-29T10:38:25.843Z,20.07
2023-04-29T10:41:35.866Z,20.26
2023-04-29T10:45:20.222Z,20.34
2023-04-29T10:48:25.697Z,20.30
2023-04-29T10:51:33.411Z,20.31
2023-04-29T10:54:37.118Z,20.03
2023-04-29T10:57:50.221Z,20.21
2023-04-29T11:01:05.165Z,20.21
2023-04-29T11:04:09.899Z,20.16
2023-04-29T11:07:29.204Z,20.06
2023-04-29T11:10:38.919Z,20.34
2023-04-29T11:13:52.428Z,20.40
2023-04-29T11:16:59.011Z,20.49
2023-04-29T11:20:03.115Z,20.58
2023-04-29T11:23:07.081Z,20.56
2023-04-29T11:26:11.069Z,20.49
2023-04-29T11:29:16.560Z,20.61
2023-04-29T11:32:22.780Z,20.77
2023-04-29T11:35:27.143Z,20.69
2023-04-29T11:38:31.581Z,20.77
2023-04-29T11:41:35.931Z,20.77
2023-04-29T11:44:41.149Z,20.81
2023-04-29T11:47:48.295Z,20.56
2023-04-29T11:50:54.929Z,20.13
2023-04-29T11:53:59.549Z,20.14
2023-04-29T11:57:04.885Z,19.86
2023-04-29T12:00:15.035Z,19.98
2023-04-29T12:03:20.447Z,19.91
2023-04-29T12:06:29.089Z,19.79
2023-04-29T12:09:43.380Z,19.92
2023-04-29T12:12:47.524Z,19.68
2023-04-29T12:15:53.703Z,19.97
2023-04-29T12:18:58.773Z,19.92
2023-04-29T12:22:05.183Z,19.64
2023-04-29T12:25:11.054Z,19.36
2023-04-29T12:28:15.105Z,19.98
2023-04-29T12:31:21.259Z,19.67
2023-04-29T12:34:29.228Z,20.00
2023-04-29T12:37:33.034Z,19.69
2023-04-29T12:40:38.980Z,19.52
2023-04-29T12:43:43.388Z,19.66
2023-04-29T12:46:48.382Z,19.45
2023-04-29T12:49:52.353Z,19.58
2023-04-29T12:52:56.360Z,19.80
2023-04-29T12:56:00.980Z,19.97
2023-04-29T12:59:08.859Z,19.78
2023-04-29T13:02:14.747Z,19.94
2023-04-29T13:05:19.075Z,19.81
2023-04-29T13:08:23.402Z,19.82
2023-04-29T13:11:32.550Z,19.71
2023-04-29T13:14:39.135Z,19.53
2023-04-29T13:17:45.983Z,19.68
2023-04-29T13:20:52.921Z,19.72
2023-04-29T13:23:56.768Z,20.37
2023-04-29T13:27:00.721Z,19.90
2023-04-29T13:30:04.349Z,20.04
2023-04-29T13:33:12.650Z,19.70
2023-04-29T13:36:17.072Z,19.67
2023-04-29T13:39:23.360Z,19.39
2023-04-29T13:42:27.893Z,19.41
2023-04-29T13:45:31.836Z,19.60
2023-04-29T13:55:25.734Z,19.53
2023-04-29T13:58:56.198Z,19.36
2023-04-29T14:04:49.334Z,19.53
2023-04-29T14:07:54.614Z,19.65
2023-04-29T14:10:58.609Z,19.75
2023-04-29T14:14:02.089Z,19.99
2023-04-29T14:17:07.103Z,19.61
2023-04-29T14:20:13.830Z,19.70
2023-04-29T14:23:17.777Z,19.68
2023-04-29T14:29:28.362Z,19.71
2023-04-29T14:32:32.175Z,19.81
2023-04-29T14:35:37.633Z,20.01
2023-04-29T14:38:41.080Z,19.92
2023-04-29T14:41:46.481Z,19.79
2023-04-29T14:45:09.940Z,19.92
2023-04-29T14:48:13.709Z,19.56
2023-04-29T14:51:18.784Z,19.74
2023-04-29T14:54:22.818Z,19.81
2023-04-29T14:57:26.381Z,19.81
2023-04-29T15:00:30.706Z,19.83
2023-04-29T15:03:34.205Z,19.79
2023-04-29T15:06:46.079Z,19.75
2023-04-29T15:09:50.835Z,19.69
2023-04-29T15:12:54.640Z,19.72
2023-04-29T15:15:58.517Z,19.71
2023-04-29T15:19:02.553Z,19.58
2023-04-29T15:22:07.451Z,19.67
2023-04-29T15:25:11.820Z,19.79
2023-04-29T15:28:15.389Z,19.77
2023-04-29T15:31:19.886Z,19.81
2023-04-29T15:34:23.545Z,19.91
2023-04-29T15:37:29.850Z,19.95
2023-04-29T15:40:33.329Z,19.88
2023-04-29T15:43:39.921Z,19.90
2023-04-29T15:46:44.491Z,19.97
2023-04-29T15:49:48.199Z,19.97
2023-04-29T15:52:55.916Z,19.99
2023-04-29T15:56:00.440Z,19.92
2023-04-29T15:59:07.127Z,19.81
2023-04-29T16:02:12.596Z,19.70
2023-04-29T16:05:16.321Z,19.68
2023-04-29T16:08:34.762Z,19.60
2023-04-29T16:11:43.045Z,19.54
2023-04-29T16:14:47.208Z,19.67
2023-04-29T16:18:16.208Z,19.73
2023-04-29T16:21:26.910Z,19.61
2023-04-29T16:24:31.794Z,19.68
2023-04-29T16:27:36.156Z,19.51
2023-04-29T16:30:39.657Z,19.58
2023-04-29T16:33:43.441Z,19.56
2023-04-29T16:36:47.284Z,19.63
2023-04-29T16:39:52.846Z,19.59
2023-04-29T16:42:57.049Z,19.60
2023-04-29T16:46:01.113Z,19.59
2023-04-29T16:49:08.170Z,19.53
2023-04-29T16:52:13.025Z,19.56
2023-04-29T16:55:18.614Z,19.53
2023-04-29T16:58:24.506Z,19.51
2023-04-29T17:01:29.443Z,19.48
2023-04-29T17:07:51.195Z,19.40
2023-04-29T17:10:56.914Z,19.40
2023-04-29T17:14:00.404Z,19.29
2023-04-29T17:17:04.726Z,19.28
2023-04-29T17:20:09.678Z,19.24
2023-04-29T17:23:13.611Z,19.15
2023-04-29T17:26:19.423Z,19.07
2023-04-29T17:29:23.534Z,19.08
2023-04-29T17:32:29.718Z,19.02
2023-04-29T17:35:34.194Z,18.92
2023-04-29T17:38:37.685Z,18.80
2023-04-29T17:41:43.323Z,18.65
2023-04-29T17:44:48.501Z,18.64
2023-04-29T17:47:53.109Z,18.57
2023-04-29T17:50:57.033Z,18.47
2023-04-29T17:54:01.343Z,18.39
2023-04-29T17:57:06.877Z,18.22
2023-04-29T18:00:12.483Z,18.01
2023-04-29T18:03:16.667Z,17.97
2023-04-29T18:06:21.043Z,17.87
2023-04-29T18:09:26.962Z,17.85
2023-04-29T18:12:32.782Z,17.74
2023-04-29T18:15:36.445Z,17.61
2023-04-29T18:18:40.391Z,17.55
2023-04-29T18:21:45.510Z,17.46
2023-04-29T18:24:50.129Z,17.27
2023-04-29T18:28:07.752Z,17.22
2023-04-29T18:31:20.478Z,17.07
2023-04-29T18:34:24.672Z,17.00
2023-04-29T18:37:31.149Z,16.97
2023-04-29T18:40:36.485Z,16.85
2023-04-29T18:43:43.390Z,16.65
2023-04-29T18:46:47.369Z,16.55
2023-04-29T18:49:51.819Z,16.46
2023-04-29T18:52:55.481Z,16.34
2023-04-29T18:56:02.332Z,16.15
2023-04-29T18:59:27.196Z,16.01
2023-04-29T19:02:31.237Z,15.84
2023-04-29T19:05:34.887Z,15.85
2023-04-29T19:08:39.288Z,15.71
2023-04-29T19:11:42.766Z,15.52
2023-04-29T19:14:47.997Z,15.41
2023-04-29T19:17:51.643Z,15.29
2023-04-29T19:20:57.254Z,15.19
2023-04-29T19:24:00.977Z,15.18
2023-04-29T19:27:06.163Z,14.96
2023-04-29T19:30:13.082Z,14.90
2023-04-29T19:33:17.422Z,14.89
2023-04-29T19:36:22.791Z,14.76
2023-04-29T19:39:32.001Z,14.67
2023-04-29T19:42:35.759Z,14.55
2023-04-29T19:45:41.419Z,14.61
2023-04-29T19:48:48.880Z,14.44
2023-04-29T19:51:52.963Z,14.29
2023-04-29T19:54:56.414Z,14.21
2023-04-29T19:58:00.792Z,14.26
2023-04-29T20:01:06.267Z,14.16
2023-04-29T20:04:12.533Z,14.14
2023-04-29T20:07:16.410Z,14.10
2023-04-29T20:10:21.043Z,14.06
2023-04-29T20:13:24.752Z,13.82
2023-04-29T20:16:32.212Z,13.70
2023-04-29T20:19:36.388Z,13.52
2023-04-29T20:22:42.914Z,13.58
2023-04-29T20:25:46.524Z,13.59
2023-04-29T20:28:50.792Z,13.29
2023-04-29T20:31:57.699Z,13.32
2023-04-29T20:35:01.944Z,13.22
2023-04-29T20:38:07.427Z,13.35
2023-04-29T20:41:11.583Z,13.32
2023-04-29T20:44:15.161Z,13.22
2023-04-29T20:47:20.706Z,13.15
2023-04-29T20:50:24.822Z,13.07
2023-04-29T20:53:29.925Z,13.02
2023-04-29T20:56:33.568Z,13.01
2023-04-29T20:59:37.656Z,12.87
2023-04-29T21:02:42.731Z,12.68
2023-04-29T21:05:46.924Z,12.62
2023-04-29T21:08:50.570Z,12.29
2023-04-29T21:11:54.744Z,11.91
2023-04-29T21:14:58.332Z,12.37
2023-04-29T21:18:08.552Z,12.25
2023-04-29T21:21:14.180Z,12.38
2023-04-29T21:24:27.259Z,12.41
2023-04-29T21:27:31.294Z,12.44
2023-04-29T21:30:35.636Z,12.38
2023-04-29T21:38:24.011Z,12.17
2023-04-29T21:41:30.698Z,12.25
2023-04-29T21:44:35.684Z,12.17
2023-04-29T21:47:40.275Z,12.18
2023-04-29T21:50:46.540Z,12.16
2023-04-29T21:53:51.854Z,12.10
2023-04-29T21:56:58.427Z,12.14
2023-04-29T22:00:01.918Z,12.16
2023-04-29T22:03:09.094Z,12.17
2023-04-29T22:06:14.089Z,12.26
2023-04-29T22:09:19.662Z,12.28
2023-04-29T22:12:23.758Z,12.36
2023-04-29T22:15:29.960Z,12.33
2023-04-29T22:18:33.533Z,12.21
2023-04-29T22:21:38.281Z,12.26
2023-04-29T22:24:44.362Z,12.24
2023-04-29T22:27:48.652Z,12.23
2023-04-29T22:30:52.336Z,11.95
2023-04-29T22:33:56.494Z,12.04
2023-04-29T22:37:00.262Z,11.84
2023-04-29T22:40:06.624Z,11.88
2023-04-29T22:43:10.567Z,11.80
2023-04-29T22:46:14.882Z,11.39
2023-04-29T22:49:18.473Z,11.44
2023-04-29T22:52:25.890Z,11.48
2023-04-29T22:55:31.008Z,11.32
2023-04-29T22:58:35.324Z,11.41
2023-04-29T23:01:43.446Z,11.44
2023-04-29T23:04:48.693Z,11.36
2023-04-29T23:07:52.472Z,11.40
2023-04-29T23:10:58.028Z,11.43
2023-04-29T23:14:01.572Z,11.43
2023-04-29T23:17:05.799Z,11.19
2023-04-29T23:20:13.475Z,11.20
2023-04-29T23:23:17.741Z,11.11
2023-04-29T23:26:23.437Z,11.14
2023-04-29T23:29:34.516Z,11.02
2023-04-29T23:32:38.657Z,10.95
2023-04-29T23:35:42.914Z,10.98
2023-04-29T23:38:46.855Z,11.03
2023-04-29T23:41:52.742Z,10.96
2023-04-29T23:44:56.455Z,10.69
2023-04-29T23:48:00.536Z,10.78
2023-04-29T23:51:04.385Z,10.82
2023-04-29T23:54:08.397Z,10.78
2023-04-29T23:57:13.413Z,10.77
